Time;durP1;ratioP1;P1;durP2;ratioP2;P2;SDS_P1;SDS_P2;PMS_P1;PMS_P2;Temp;Humidity;BMP_temperature;BMP_pressure;BME280_temperature;BME280_humidity;BME280_pressure;Samples;Min_cycle;Max_cycle;Signal;HPM_P1;HPM_P2
2022/03/10 00:01:45;;;;;;;12.65;7.55;;;;;;;1.08;54.05;101325.06;5049260;28;20034;-72
2022/03/10 00:04:10;;;;;;;17.30;10.10;;;;;;;1.10;54.19;101331.00;5051313;28;20052;-72
2022/03/10 00:06:35;;;;;;;14.50;8.82;;;;;;;1.10;55.77;101333.63;5047100;28;20525;-72
2022/03/10 00:09:02;;;;;;;17.58;10.48;;;;;;;1.10;55.39;101333.63;5051949;28;20034;-72
2022/03/10 00:11:27;;;;;;;17.63;10.15;;;;;;;1.10;55.40;101338.81;5039341;28;20052;-71
2022/03/10 00:13:53;;;;;;;17.10;10.15;;;;;;;1.06;55.23;101346.78;5046077;28;20037;-72
2022/03/10 00:16:18;;;;;;;13.50;8.60;;;;;;;1.03;54.92;101353.91;5050412;28;20502;-71
2022/03/10 00:18:44;;;;;;;12.85;7.88;;;;;;;0.94;55.35;101355.16;5051268;28;20033;-71
2022/03/10 00:21:09;;;;;;;13.60;7.90;;;;;;;0.88;55.11;101358.03;5049233;28;20033;-71
2022/03/10 00:23:35;;;;;;;15.38;8.98;;;;;;;0.80;55.83;101352.34;5044842;28;20037;-73
2022/03/10 00:26:00;;;;;;;17.25;9.98;;;;;;;0.78;55.77;101348.94;5054875;28;20036;-71
2022/03/10 00:28:26;;;;;;;17.27;9.57;;;;;;;0.73;56.07;101348.31;5059742;28;20041;-72
2022/03/10 00:30:51;;;;;;;14.45;8.55;;;;;;;0.70;55.92;101349.31;5059671;28;20112;-72
2022/03/10 00:33:17;;;;;;;15.93;9.30;;;;;;;0.71;56.62;101350.13;5047919;28;20035;-71
2022/03/10 00:35:42;;;;;;;14.98;9.52;;;;;;;0.70;56.82;101344.09;5053945;28;20033;-72
2022/03/10 00:38:07;;;;;;;13.15;7.80;;;;;;;0.66;56.41;101357.31;5048283;28;20039;-72
2022/03/10 00:40:32;;;;;;;12.45;7.60;;;;;;;0.60;56.25;101358.44;5044986;28;20030;-71
2022/03/10 00:42:58;;;;;;;12.82;8.00;;;;;;;0.53;56.63;101354.41;5051883;28;20041;-72
2022/03/10 00:45:25;;;;;;;14.23;8.65;;;;;;;0.45;56.94;101353.88;5050077;28;20047;-71
2022/03/10 00:47:51;;;;;;;11.32;6.85;;;;;;;0.38;56.62;101355.91;5044935;28;20414;-72
2022/03/10 00:50:17;;;;;;;13.15;7.78;;;;;;;0.36;56.46;101360.34;5050677;28;20071;-72
2022/03/10 00:52:44;;;;;;;11.52;6.80;;;;;;;0.36;56.96;101357.75;5046036;28;20037;-71
2022/03/10 00:55:11;;;;;;;12.00;7.25;;;;;;;0.32;56.77;101361.38;5047554;28;20041;-71
2022/03/10 00:57:37;;;;;;;11.60;6.95;;;;;;;0.31;57.38;101367.47;5056079;28;20490;-72
2022/03/10 01:00:06;;;;;;;16.33;9.45;;;;;;;0.23;58.15;101360.00;5059444;28;20059;-72
2022/03/10 01:02:32;;;;;;;14.10;9.10;;;;;;;0.16;57.91;101364.63;5050497;28;20033;-71
2022/03/10 01:04:57;;;;;;;13.82;8.48;;;;;;;0.07;58.36;101362.44;5048048;28;20041;-71
2022/03/10 01:07:23;;;;;;;14.90;9.20;;;;;;;0.02;58.16;101366.09;5051489;28;20060;-71
2022/03/10 01:09:48;;;;;;;14.20;8.88;;;;;;;-0.04;58.40;101364.63;5043760;28;20037;-71
2022/03/10 01:12:13;;;;;;;14.43;8.23;;;;;;;-0.08;58.29;101368.25;5048268;28;20080;-71
2022/03/10 01:14:39;;;;;;;12.90;7.40;;;;;;;-0.13;58.06;101371.03;5051232;28;20059;-71
2022/03/10 01:17:04;;;;;;;12.07;7.68;;;;;;;-0.18;58.04;101370.38;5042637;28;20105;-71
2022/03/10 01:19:29;;;;;;;14.20;8.65;;;;;;;-0.24;58.31;101368.88;5048123;28;20322;-70
2022/03/10 01:21:56;;;;;;;11.73;6.72;;;;;;;-0.29;57.82;101362.16;5050299;28;20033;-71
2022/03/10 01:24:21;;;;;;;16.98;8.52;;;;;;;-0.36;58.23;101355.50;5050364;28;20397;-70
2022/03/10 01:26:46;;;;;;;14.13;8.20;;;;;;;-0.40;58.18;101360.00;5054369;28;20037;-70
2022/03/10 01:29:13;;;;;;;12.85;7.75;;;;;;;-0.45;57.77;101361.94;5054049;28;20029;-71
2022/03/10 01:31:39;;;;;;;10.40;6.85;;;;;;;-0.53;58.18;101359.63;5052843;28;20041;-72
2022/03/10 01:34:04;;;;;;;12.30;7.78;;;;;;;-0.58;58.30;101366.75;5050596;28;20062;-73
2022/03/10 01:36:29;;;;;;;14.80;8.73;;;;;;;-0.63;58.62;101358.28;5050364;28;20060;-72
2022/03/10 01:38:55;;;;;;;13.68;8.07;;;;;;;-0.70;58.94;101352.47;5045705;28;20064;-71
2022/03/10 01:41:20;;;;;;;11.35;7.05;;;;;;;-0.73;58.36;101356.97;5050003;28;20041;-71
2022/03/10 01:43:59;;;;;;;13.25;7.75;;;;;;;-0.77;59.02;101355.38;5049193;28;20465;-72
2022/03/10 01:46:25;;;;;;;13.98;7.78;;;;;;;-0.81;58.88;101359.00;5050260;28;20120;-72
2022/03/10 01:48:51;;;;;;;13.77;8.18;;;;;;;-0.87;59.17;101360.09;5052320;28;20101;-71
2022/03/10 01:51:17;;;;;;;11.60;6.88;;;;;;;-0.90;58.84;101360.22;5051676;28;20069;-71
2022/03/10 01:53:43;;;;;;;10.02;6.45;;;;;;;-0.93;58.85;101348.19;5051932;28;20040;-71
2022/03/10 01:56:10;;;;;;;12.35;6.75;;;;;;;-0.93;58.76;101355.09;5046836;28;20049;-72
2022/03/10 01:58:36;;;;;;;10.43;6.50;;;;;;;-0.97;58.81;101351.78;5049520;28;20041;-71
2022/03/10 02:01:02;;;;;;;12.07;6.90;;;;;;;-0.98;58.98;101351.84;5052506;28;20033;-70
2022/03/10 02:03:27;;;;;;;11.57;6.97;;;;;;;-1.00;59.25;101354.50;5048306;28;20079;-71
2022/03/10 02:05:54;;;;;;;14.93;9.02;;;;;;;-1.03;60.17;101357.19;5038400;28;20066;-71
2022/03/10 02:11:04;;;;;;;16.15;9.70;;;;;;;-1.09;60.40;101360.03;5043468;28;20062;-70
2022/03/10 02:13:30;;;;;;;15.70;9.43;;;;;;;-1.11;60.54;101357.50;5044478;28;20121;-71
2022/03/10 02:18:39;;;;;;;13.23;8.18;;;;;;;-1.11;60.10;101356.66;5046360;28;20060;-70
2022/03/10 02:21:04;;;;;;;13.32;8.30;;;;;;;-1.12;60.61;101354.94;5044326;28;20033;-72
2022/03/10 02:23:30;;;;;;;15.63;8.88;;;;;;;-1.13;60.75;101353.25;5049673;28;20116;-71
2022/03/10 02:26:00;;;;;;;18.05;10.48;;;;;;;-1.15;60.87;101353.31;5043824;28;20029;-71
2022/03/10 02:28:27;;;;;;;18.55;10.57;;;;;;;-1.16;61.38;101351.63;5047602;28;20056;-73
2022/03/10 02:30:55;;;;;;;18.30;10.48;;;;;;;-1.14;61.26;101362.81;5051569;28;20033;-72
2022/03/10 02:33:20;;;;;;;14.93;9.27;;;;;;;-1.17;61.09;101360.34;5044963;28;20057;-70
2022/03/10 02:35:46;;;;;;;14.90;8.98;;;;;;;-1.16;61.02;101354.22;5050658;28;20033;-71
2022/03/10 02:38:18;;;;;;;15.45;8.93;;;;;;;-1.12;61.33;101350.63;5045353;28;20033;-71
2022/03/10 02:40:44;;;;;;;19.27;10.63;;;;;;;-1.09;60.70;101350.50;5045872;28;20025;-71
2022/03/10 02:43:09;;;;;;;19.98;11.65;;;;;;;-0.99;61.11;101350.16;5034538;28;20045;-71
2022/03/10 02:45:34;;;;;;;22.95;13.15;;;;;;;-0.94;61.29;101351.66;5048268;28;20041;-73
2022/03/10 02:48:00;;;;;;;19.42;11.25;;;;;;;-0.93;61.11;101349.91;5043669;28;20025;-71
2022/03/10 02:50:25;;;;;;;17.90;10.48;;;;;;;-0.93;61.12;101342.13;5038580;28;20056;-71
2022/03/10 02:52:51;;;;;;;14.55;8.70;;;;;;;-0.96;61.17;101344.84;5049599;28;20040;-72
2022/03/10 02:55:16;;;;;;;13.75;7.53;;;;;;;-1.00;61.12;101345.84;5045143;28;20041;-71
2022/03/10 02:57:41;;;;;;;14.30;7.88;;;;;;;-1.07;61.61;101348.69;5048110;28;20435;-71
2022/03/10 03:00:08;;;;;;;13.15;7.60;;;;;;;-1.10;61.41;101356.59;5050207;28;20576;-71
2022/03/10 03:02:34;;;;;;;17.70;9.40;;;;;;;-1.12;62.04;101352.34;5049584;28;20071;-72
2022/03/10 03:04:59;;;;;;;17.52;9.73;;;;;;;-1.11;62.12;101352.31;5049948;28;20037;-71
2022/03/10 03:07:24;;;;;;;18.23;9.68;;;;;;;-1.13;62.73;101361.88;5036308;28;20037;-72
2022/03/10 03:09:50;;;;;;;20.30;12.15;;;;;;;-1.15;63.74;101370.63;5036320;28;20041;-71
2022/03/10 03:12:16;;;;;;;24.40;14.70;;;;;;;-1.21;65.54;101366.53;5045430;28;20502;-70
2022/03/10 03:14:41;;;;;;;24.80;14.63;;;;;;;-1.24;66.16;101371.84;5039650;28;20037;-71
2022/03/10 03:17:07;;;;;;;22.75;13.77;;;;;;;-1.22;65.56;101374.34;5043335;28;20558;-72
2022/03/10 03:19:32;;;;;;;20.15;11.85;;;;;;;-1.16;64.44;101369.78;5049926;28;20033;-71
2022/03/10 03:21:57;;;;;;;20.77;11.40;;;;;;;-1.11;64.75;101367.88;5046232;28;20041;-71
2022/03/10 03:24:23;;;;;;;17.10;10.88;;;;;;;-1.01;64.18;101376.16;5049411;28;20401;-71
2022/03/10 03:26:49;;;;;;;19.15;10.88;;;;;;;-0.97;63.87;101371.72;5045317;28;20087;-71
2022/03/10 03:29:14;;;;;;;18.38;11.23;;;;;;;-0.93;64.01;101371.56;5056118;28;20049;-71
2022/03/10 03:31:39;;;;;;;20.85;12.20;;;;;;;-0.89;64.02;101372.28;5048647;28;20037;-71
2022/03/10 03:34:10;;;;;;;17.92;11.55;;;;;;;-0.85;63.89;101373.84;5048860;28;20040;-71
2022/03/10 03:36:39;;;;;;;19.30;11.05;;;;;;;-0.80;64.03;101373.69;5024995;28;20038;-73
2022/03/10 03:39:05;;;;;;;19.08;11.20;;;;;;;-0.70;63.97;101375.84;5018406;28;21488;-71
2022/03/10 03:41:30;;;;;;;19.10;11.57;;;;;;;-0.53;63.47;101379.56;5030013;28;20041;-72
2022/03/10 03:43:55;;;;;;;18.75;11.80;;;;;;;-0.46;63.40;101375.81;5026788;28;20045;-71
2022/03/10 03:46:21;;;;;;;17.05;10.98;;;;;;;-0.38;62.83;101381.56;5026859;28;20056;-71
2022/03/10 03:48:47;;;;;;;15.57;8.98;;;;;;;-0.35;62.42;101378.84;5021437;28;20048;-72
2022/03/10 03:51:12;;;;;;;16.73;9.75;;;;;;;-0.41;62.29;101383.44;5026048;28;20048;-72
2022/03/10 03:53:37;;;;;;;15.40;9.45;;;;;;;-0.48;62.27;101380.22;5028997;28;20029;-72
2022/03/10 03:56:03;;;;;;;17.02;9.98;;;;;;;-0.57;62.22;101385.78;5035320;28;20041;-72
2022/03/10 03:58:28;;;;;;;15.15;9.40;;;;;;;-0.65;62.25;101392.09;5036613;28;20037;-71
2022/03/10 04:00:54;;;;;;;16.70;9.18;;;;;;;-0.72;62.11;101384.63;5025425;28;20132;-71
2022/03/10 04:03:19;;;;;;;17.80;9.80;;;;;;;-0.80;62.52;101382.31;5039476;28;20038;-72
2022/03/10 04:05:44;;;;;;;13.40;8.35;;;;;;;-0.87;62.17;101383.44;5031776;28;20109;-71
2022/03/10 04:08:10;;;;;;;12.57;7.85;;;;;;;-0.94;62.47;101379.38;5036158;28;20397;-71
2022/03/10 04:10:36;;;;;;;14.05;8.70;;;;;;;-0.99;62.53;101381.31;5038928;28;20034;-71
2022/03/10 04:13:02;;;;;;;12.77;7.93;;;;;;;-1.04;62.50;101383.25;5032724;28;20038;-71
2022/03/10 04:15:27;;;;;;;13.70;7.75;;;;;;;-1.13;62.79;101385.25;5032365;28;20132;-72
2022/03/10 04:17:53;;;;;;;12.90;7.60;;;;;;;-1.18;62.89;101383.72;5039237;28;20072;-71
2022/03/10 04:20:19;;;;;;;12.65;8.38;;;;;;;-1.23;62.91;101386.50;5037348;28;20033;-71
2022/03/10 04:22:44;;;;;;;10.73;6.55;;;;;;;-1.31;62.82;101380.75;5027679;28;20041;-72
2022/03/10 04:25:09;;;;;;;10.27;6.55;;;;;;;-1.36;62.91;101380.03;5026203;28;20061;-71
2022/03/10 04:27:36;;;;;;;11.52;6.40;;;;;;;-1.43;63.21;101376.84;5028705;28;20077;-71
2022/03/10 04:30:03;;;;;;;16.10;8.88;;;;;;;-1.46;63.15;101376.09;5027029;28;20057;-71
2022/03/10 04:32:28;;;;;;;16.98;10.00;;;;;;;-1.52;63.89;101378.00;5026642;28;20048;-71
2022/03/10 04:34:53;;;;;;;14.32;8.90;;;;;;;-1.56;64.13;101375.56;5031929;28;20109;-72
2022/03/10 04:37:18;;;;;;;15.32;9.15;;;;;;;-1.58;64.15;101374.75;5016829;28;20038;-71
2022/03/10 04:39:44;;;;;;;15.70;9.23;;;;;;;-1.62;64.32;101376.63;5015671;28;20570;-71
2022/03/10 04:42:10;;;;;;;14.55;8.30;;;;;;;-1.66;64.08;101379.38;5008925;28;20038;-71
2022/03/10 04:44:35;;;;;;;17.75;9.75;;;;;;;-1.69;63.79;101377.75;5013351;28;20045;-71
2022/03/10 04:47:00;;;;;;;13.68;8.45;;;;;;;-1.73;64.13;101374.38;5038712;28;20047;-72
2022/03/10 04:49:26;;;;;;;15.15;8.85;;;;;;;-1.76;64.28;101378.84;5030336;28;20030;-70
2022/03/10 04:51:51;;;;;;;17.38;10.27;;;;;;;-1.79;64.86;101373.75;5030157;28;20053;-70
2022/03/10 04:54:17;;;;;;;21.77;11.43;;;;;;;-1.84;65.61;101370.47;5028765;28;20049;-72
2022/03/10 04:56:42;;;;;;;23.65;12.65;;;;;;;-1.87;65.51;101374.00;5023236;28;20038;-71
2022/03/10 04:59:07;;;;;;;16.00;9.57;;;;;;;-1.89;65.10;101367.19;5029965;28;20034;-71
2022/03/10 05:01:33;;;;;;;19.30;10.82;;;;;;;-1.95;65.42;101382.03;5040244;28;20038;-72
2022/03/10 05:03:58;;;;;;;18.92;10.00;;;;;;;-1.95;64.88;101378.63;5038958;28;20030;-71
2022/03/10 05:06:23;;;;;;;15.82;10.25;;;;;;;-1.98;65.51;101373.50;5023034;28;20042;-71
2022/03/10 05:08:49;;;;;;;17.42;10.52;;;;;;;-2.01;65.37;101379.63;5025194;28;20045;-72
2022/03/10 05:11:14;;;;;;;21.13;11.45;;;;;;;-2.03;65.61;101384.03;5030977;28;20228;-71
2022/03/10 05:13:40;;;;;;;23.45;12.73;;;;;;;-2.05;66.38;101375.47;5031803;28;20052;-71
2022/03/10 05:16:06;;;;;;;18.63;10.88;;;;;;;-2.08;65.97;101375.56;5024499;28;20030;-71
2022/03/10 05:18:31;;;;;;;22.45;13.43;;;;;;;-2.10;67.19;101379.94;5034989;28;20095;-71
2022/03/10 05:20:56;;;;;;;17.33;10.18;;;;;;;-2.13;66.19;101382.63;5029317;28;20170;-71
2022/03/10 05:23:22;;;;;;;14.88;8.82;;;;;;;-2.15;65.87;101377.50;5032514;28;20056;-71
2022/03/10 05:25:48;;;;;;;17.25;9.35;;;;;;;-2.18;65.57;101379.34;5025566;28;20506;-72
2022/03/10 05:28:14;;;;;;;20.45;12.65;;;;;;;-2.19;66.44;101383.69;5027042;28;20037;-72
2022/03/10 05:30:40;;;;;;;21.38;12.40;;;;;;;-2.17;66.21;101381.03;5029214;28;20034;-71
2022/03/10 05:33:06;;;;;;;16.48;10.43;;;;;;;-2.17;66.26;101391.41;5038076;28;20110;-71
2022/03/10 05:35:31;;;;;;;19.83;10.65;;;;;;;-2.16;66.28;101387.94;5023075;28;20068;-72
2022/03/10 05:37:57;;;;;;;15.68;9.68;;;;;;;-2.20;66.67;101387.16;5025373;28;20492;-72
2022/03/10 05:40:23;;;;;;;14.85;8.93;;;;;;;-2.20;66.32;101399.28;5051152;28;20456;-71
2022/03/10 05:42:52;;;;;;;16.00;8.40;;;;;;;-2.23;66.31;101394.19;5051223;28;20036;-72
2022/03/10 05:45:20;;;;;;;11.75;7.10;;;;;;;-2.25;66.08;101402.00;5041122;28;20041;-71
2022/03/10 05:47:46;;;;;;;13.50;7.90;;;;;;;-2.28;66.48;101406.47;5050450;28;20059;-71
2022/03/10 05:50:11;;;;;;;15.30;9.10;;;;;;;-2.30;66.70;101408.25;5048232;28;20044;-72
2022/03/10 05:52:37;;;;;;;15.13;8.77;;;;;;;-2.33;66.64;101421.31;5044879;28;20561;-72
2022/03/10 05:55:03;;;;;;;14.10;8.30;;;;;;;-2.35;66.69;101426.50;5041117;28;20387;-72
2022/03/10 05:57:29;;;;;;;13.95;7.70;;;;;;;-2.36;66.24;101427.38;5041918;28;20038;-72
2022/03/10 05:59:54;;;;;;;18.60;10.27;;;;;;;-2.33;66.61;101426.47;5050561;28;20048;-71
2022/03/10 06:02:20;;;;;;;22.20;11.50;;;;;;;-2.30;66.91;101431.56;5053872;28;20037;-71
2022/03/10 06:04:46;;;;;;;17.15;10.25;;;;;;;-2.29;66.76;101433.25;5047981;28;20036;-71
2022/03/10 06:07:12;;;;;;;16.08;8.93;;;;;;;-2.27;66.84;101434.03;5056507;28;20116;-71
2022/03/10 06:09:37;;;;;;;14.93;8.90;;;;;;;-2.26;66.75;101427.97;5055374;28;20041;-72
2022/03/10 06:12:03;;;;;;;14.55;8.73;;;;;;;-2.23;66.89;101439.09;5049301;28;20033;-71
2022/03/10 06:14:28;;;;;;;14.40;8.65;;;;;;;-2.21;66.97;101445.06;5046422;28;20072;-72
2022/03/10 06:16:54;;;;;;;14.63;9.32;;;;;;;-2.21;67.55;101441.63;5047083;28;20037;-72
2022/03/10 06:19:20;;;;;;;15.52;8.85;;;;;;;-2.17;67.34;101444.09;5042055;28;20037;-73
2022/03/10 06:21:46;;;;;;;16.00;9.85;;;;;;;-2.05;67.86;101447.16;5054807;28;20028;-71
2022/03/10 06:24:12;;;;;;;15.25;9.27;;;;;;;-1.89;67.72;101452.72;5037436;28;20087;-72
2022/03/10 06:26:38;;;;;;;14.20;8.43;;;;;;;-1.73;67.32;101453.91;5026324;28;20034;-73
2022/03/10 06:29:04;;;;;;;10.68;6.80;;;;;;;-1.57;67.35;101455.13;5032211;28;20029;-71
2022/03/10 06:31:30;;;;;;;13.77;7.95;;;;;;;-1.39;66.98;101468.34;5037487;28;20033;-71
2022/03/10 06:33:55;;;;;;;11.70;6.57;;;;;;;-1.06;67.15;101468.94;5028998;28;20087;-71
2022/03/10 06:36:20;;;;;;;12.88;7.93;;;;;;;-0.58;66.95;101475.00;5038757;28;20276;-72
2022/03/10 06:38:46;;;;;;;19.70;10.93;;;;;;;-0.06;66.97;101478.22;5045179;28;20056;-71
2022/03/10 06:41:11;;;;;;;15.63;10.13;;;;;;;0.48;66.81;101474.31;5048746;28;20459;-72
2022/03/10 06:43:36;;;;;;;16.50;9.98;;;;;;;1.02;66.64;101474.59;5046974;28;20030;-72
2022/03/10 06:46:02;;;;;;;19.33;12.05;;;;;;;1.41;66.38;101474.59;5054218;28;20060;-72
2022/03/10 06:48:28;;;;;;;20.63;11.88;;;;;;;1.73;66.22;101477.50;5040846;28;20056;-72
2022/03/10 06:50:54;;;;;;;19.75;12.27;;;;;;;2.11;65.57;101483.50;5053266;28;20033;-73
2022/03/10 06:53:19;;;;;;;16.17;10.75;;;;;;;2.42;64.73;101476.78;5058097;28;20033;-71
2022/03/10 06:55:44;;;;;;;19.73;12.30;;;;;;;2.72;63.26;101477.03;5058059;28;20029;-74
2022/03/10 06:58:10;;;;;;;19.55;12.07;;;;;;;3.14;62.96;101469.66;5047115;28;20029;-72
2022/03/10 07:00:35;;;;;;;18.95;12.00;;;;;;;3.55;62.19;101483.16;5059823;28;20039;-73
2022/03/10 07:03:01;;;;;;;15.70;10.88;;;;;;;3.99;61.45;101485.06;5041922;28;20056;-73
2022/03/10 07:05:26;;;;;;;17.17;11.77;;;;;;;4.46;60.09;101473.69;5045968;28;20094;-73
2022/03/10 07:07:51;;;;;;;21.98;13.60;;;;;;;4.72;59.02;101473.06;5054165;28;20282;-72
2022/03/10 07:10:17;;;;;;;17.40;11.52;;;;;;;4.99;58.84;101478.47;5054304;28;20041;-73
2022/03/10 07:12:42;;;;;;;17.00;11.32;;;;;;;5.29;58.17;101479.22;5059846;28;20029;-72
2022/03/10 07:15:11;;;;;;;15.13;10.65;;;;;;;5.68;58.44;101475.03;5050375;28;20374;-73
2022/03/10 07:17:37;;;;;;;13.05;8.98;;;;;;;6.27;58.11;101487.06;5058491;28;20074;-73
2022/03/10 07:20:03;;;;;;;17.17;12.60;;;;;;;6.53;55.52;101480.97;5042529;28;20120;-74
2022/03/10 07:22:28;;;;;;;15.90;11.02;;;;;;;6.75;55.70;101484.78;5059354;28;20284;-72
2022/03/10 07:24:53;;;;;;;13.40;9.63;;;;;;;7.22;55.71;101483.31;5049936;28;20033;-72
2022/03/10 07:27:19;;;;;;;17.40;10.57;;;;;;;7.36;54.62;101492.88;5057979;28;20047;-73
2022/03/10 07:29:44;;;;;;;14.10;10.02;;;;;;;7.02;54.00;101492.56;5050956;28;20401;-72
2022/03/10 07:32:09;;;;;;;14.13;9.50;;;;;;;6.65;53.48;101488.97;5053825;28;20037;-73
2022/03/10 07:34:35;;;;;;;12.70;9.00;;;;;;;6.30;53.20;101492.16;5047562;28;20029;-72
2022/03/10 07:37:00;;;;;;;14.60;10.43;;;;;;;5.87;52.32;101487.00;5058618;28;20029;-72
2022/03/10 07:39:26;;;;;;;16.98;10.90;;;;;;;5.48;52.11;101488.56;5051347;28;20116;-72
2022/03/10 07:41:51;;;;;;;21.92;12.38;;;;;;;5.07;51.91;101484.06;5044344;28;20092;-72
2022/03/10 07:44:17;;;;;;;16.60;11.60;;;;;;;4.75;52.09;101484.22;5053332;28;20037;-72
2022/03/10 07:46:42;;;;;;;16.48;10.68;;;;;;;4.52;52.26;101484.72;5058404;28;20094;-71
2022/03/10 07:49:08;;;;;;;16.42;10.43;;;;;;;4.35;52.30;101489.16;5058450;28;20036;-72
2022/03/10 07:51:34;;;;;;;17.13;11.38;;;;;;;4.26;52.58;101479.19;5050144;28;20060;-72
2022/03/10 07:54:00;;;;;;;14.68;9.93;;;;;;;4.14;52.55;101482.53;5056617;28;20040;-71
2022/03/10 07:56:26;;;;;;;18.55;10.80;;;;;;;4.07;52.76;101474.16;5053832;28;20411;-73
2022/03/10 07:58:51;;;;;;;16.98;11.10;;;;;;;3.98;53.45;101475.53;5050746;28;20251;-72
2022/03/10 08:01:17;;;;;;;16.65;10.88;;;;;;;3.98;53.22;101474.69;5048201;28;20128;-71
2022/03/10 08:03:42;;;;;;;19.25;11.40;;;;;;;3.97;53.38;101479.06;5053243;28;20485;-72
2022/03/10 08:06:08;;;;;;;14.32;9.88;;;;;;;4.01;53.30;101477.97;5047248;28;20045;-73
2022/03/10 08:08:33;;;;;;;14.98;10.18;;;;;;;4.06;53.37;101480.34;5055560;28;20514;-72
2022/03/10 08:10:59;;;;;;;17.25;10.77;;;;;;;4.13;53.57;101478.22;5046031;28;20120;-72
2022/03/10 08:13:26;;;;;;;17.98;11.75;;;;;;;4.14;53.82;101477.28;5057520;28;20029;-71
2022/03/10 08:15:53;;;;;;;19.25;12.20;;;;;;;4.22;53.67;101481.16;5047680;28;20029;-71
2022/03/10 08:18:18;;;;;;;18.17;12.05;;;;;;;4.34;53.47;101484.00;5057710;28;20025;-71
2022/03/10 08:20:44;;;;;;;16.58;10.88;;;;;;;4.44;53.60;101477.31;5041269;28;20120;-72
2022/03/10 08:23:09;;;;;;;19.23;12.15;;;;;;;4.62;53.37;101470.16;5045131;28;20040;-72
2022/03/10 08:25:36;;;;;;;16.20;10.63;;;;;;;4.90;52.96;101478.06;5054724;28;20289;-72
2022/03/10 08:28:03;;;;;;;19.33;12.07;;;;;;;5.41;53.15;101471.50;5050043;28;20087;-71
2022/03/10 08:30:28;;;;;;;16.20;11.05;;;;;;;6.27;52.81;101476.56;5052699;28;20038;-72
2022/03/10 08:32:53;;;;;;;15.38;10.60;;;;;;;7.44;52.18;101474.78;5044970;28;20034;-72
2022/03/10 08:35:19;;;;;;;17.40;11.23;;;;;;;8.49;50.80;101468.88;5050465;28;20092;-72
2022/03/10 08:37:44;;;;;;;14.23;9.90;;;;;;;9.63;50.33;101470.66;5052180;28;20044;-73
2022/03/10 08:40:12;;;;;;;12.98;9.20;;;;;;;10.75;48.34;101469.44;5052207;28;20295;-74
2022/03/10 08:42:37;;;;;;;15.43;10.02;;;;;;;11.81;47.50;101456.75;5051737;28;20048;-73
2022/03/10 08:45:03;;;;;;;12.43;8.77;;;;;;;12.74;46.34;101460.66;5058790;28;20034;-74
2022/03/10 08:47:29;;;;;;;17.92;10.80;;;;;;;13.41;43.73;101458.78;5057088;28;20033;-73
2022/03/10 08:49:54;;;;;;;13.48;10.25;;;;;;;14.27;42.47;101469.00;5058941;28;20045;-73
2022/03/10 08:52:20;;;;;;;11.30;7.78;;;;;;;15.20;42.35;101457.84;5050715;28;20037;-73
2022/03/10 08:54:45;;;;;;;11.90;8.88;;;;;;;15.71;40.01;101448.09;5051005;28;20032;-73
2022/03/10 08:57:11;;;;;;;9.65;7.38;;;;;;;16.13;40.05;101449.78;5052348;28;20418;-73
2022/03/10 08:59:36;;;;;;;13.80;10.90;;;;;;;16.59;36.98;101442.13;5049780;28;20044;-73
2022/03/10 09:02:02;;;;;;;11.35;9.00;;;;;;;16.69;36.57;101445.44;5043436;28;20037;-73
2022/03/10 09:04:29;;;;;;;12.70;9.77;;;;;;;17.17;35.61;101442.84;5045716;28;20045;-73
2022/03/10 09:06:55;;;;;;;13.20;9.80;;;;;;;17.62;34.42;101434.13;5058823;28;20040;-75
2022/03/10 09:09:20;;;;;;;15.38;10.30;;;;;;;17.66;33.50;101428.41;5056651;28;20038;-74
2022/03/10 09:11:45;;;;;;;12.65;10.23;;;;;;;17.72;32.10;101438.41;5050194;28;20037;-73
2022/03/10 09:14:11;;;;;;;9.13;7.80;;;;;;;18.59;32.21;101449.66;5046235;28;20040;-72
2022/03/10 09:16:36;;;;;;;12.15;9.50;;;;;;;19.07;31.06;101441.31;5058806;28;20052;-74
2022/03/10 09:19:02;;;;;;;10.32;8.13;;;;;;;19.73;30.75;101438.63;5051711;28;20566;-73
2022/03/10 09:21:28;;;;;;;13.48;9.38;;;;;;;20.09;28.91;101427.00;5054654;28;20033;-73
2022/03/10 09:23:53;;;;;;;8.73;7.32;;;;;;;20.95;29.07;101422.31;5057410;28;20063;-72
2022/03/10 09:26:18;;;;;;;10.40;8.32;;;;;;;21.17;28.42;101430.28;5050046;28;20033;-74
2022/03/10 09:28:44;;;;;;;8.43;7.07;;;;;;;21.55;28.06;101428.00;5051580;28;20405;-73
2022/03/10 09:31:12;;;;;;;9.45;8.18;;;;;;;21.99;26.95;101421.22;5053888;28;20037;-74
2022/03/10 09:33:38;;;;;;;9.60;7.93;;;;;;;22.64;26.23;101421.47;5056595;28;20036;-74
2022/03/10 09:36:04;;;;;;;9.45;8.30;;;;;;;23.36;25.43;101416.09;5060551;28;20033;-73
2022/03/10 09:38:29;;;;;;;10.13;8.00;;;;;;;24.01;24.53;101413.22;5053899;28;20057;-73
2022/03/10 09:40:54;;;;;;;9.82;7.88;;;;;;;24.62;24.14;101403.56;5054105;28;20076;-74
2022/03/10 09:43:27;;;;;;;10.55;8.45;;;;;;;24.65;23.03;101405.84;5057917;28;20529;-73
2022/03/10 09:45:52;;;;;;;10.95;8.98;;;;;;;24.94;22.42;101404.25;5059522;28;20033;-73
2022/03/10 09:48:18;;;;;;;10.02;8.30;;;;;;;25.21;22.16;101412.09;5052037;28;20618;-73
2022/03/10 09:50:47;;;;;;;10.38;7.82;;;;;;;25.58;22.13;101406.59;5048249;28;20524;-73
2022/03/10 09:53:13;;;;;;;9.38;7.28;;;;;;;26.15;22.12;101403.44;5055078;28;20044;-73
2022/03/10 09:55:39;;;;;;;10.73;8.50;;;;;;;26.43;21.24;101397.34;5062356;28;20482;-72
2022/03/10 09:58:06;;;;;;;9.77;7.95;;;;;;;26.89;20.99;101403.81;5057634;28;20040;-72
2022/03/10 10:00:31;;;;;;;9.10;7.25;;;;;;;27.48;20.98;101404.47;5055335;28;20045;-72
2022/03/10 10:02:57;;;;;;;7.53;6.50;;;;;;;27.85;21.01;101403.25;5056219;28;20029;-72
2022/03/10 10:05:31;;;;;;;8.85;6.80;;;;;;;28.13;20.28;101402.34;5058889;28;20053;-73
2022/03/10 10:08:17;;;;;;;10.65;8.45;;;;;;;28.11;19.58;101396.34;5060545;28;20090;-73
2022/03/10 10:10:51;;;;;;;9.80;7.70;;;;;;;28.47;19.14;101405.88;5060757;28;20036;-73
2022/03/10 10:13:25;;;;;;;9.35;8.10;;;;;;;27.98;19.29;101407.53;5060134;28;20033;-73
2022/03/10 10:15:59;;;;;;;8.23;7.20;;;;;;;28.08;19.06;101396.81;5059162;28;20033;-72
2022/03/10 10:18:25;;;;;;;11.00;8.70;;;;;;;27.99;18.48;101401.03;5052209;28;20033;-73
2022/03/10 10:20:52;;;;;;;9.32;7.53;;;;;;;28.40;18.56;101394.31;5057719;28;20043;-73
2022/03/10 10:23:25;;;;;;;10.95;8.63;;;;;;;28.78;17.58;101398.16;5060825;28;20117;-74
2022/03/10 10:25:58;;;;;;;9.07;7.65;;;;;;;29.05;18.33;101398.19;5052435;28;20037;-74
2022/03/10 10:28:50;;;;;;;7.93;6.93;;;;;;;29.50;18.03;101393.53;5060501;28;20489;-73
2022/03/10 10:31:20;;;;;;;7.80;7.00;;;;;;;29.90;17.46;101398.59;5058154;28;20033;-73
2022/03/10 10:34:00;;;;;;;11.95;8.30;;;;;;;30.48;15.79;101396.81;5051493;28;20025;-73
2022/03/10 10:36:31;;;;;;;10.63;7.90;;;;;;;30.69;15.76;101396.94;5050869;28;20029;-73
2022/03/10 10:39:06;;;;;;;8.80;7.32;;;;;;;29.80;16.16;101387.59;5051962;28;20058;-74
2022/03/10 10:41:31;;;;;;;9.02;6.60;;;;;;;30.01;16.38;101383.94;5059927;28;20096;-73
2022/03/10 10:43:58;;;;;;;8.35;6.82;;;;;;;30.97;15.84;101381.25;5059103;28;20059;-74
2022/03/10 10:46:30;;;;;;;7.28;5.97;;;;;;;31.49;15.09;101378.41;5051570;28;20088;-73
2022/03/10 10:48:56;;;;;;;9.05;5.82;;;;;;;31.88;14.65;101363.38;5060399;28;20036;-73
2022/03/10 10:51:45;;;;;;;7.53;5.82;;;;;;;32.90;13.67;101365.06;5051024;28;20029;-73
2022/03/10 10:54:20;;;;;;;5.55;4.93;;;;;;;33.01;12.81;101363.91;5053462;28;20500;-72
2022/03/10 10:56:50;;;;;;;6.85;5.35;;;;;;;33.37;13.21;101360.97;5060563;28;20060;-73
2022/03/10 10:59:29;;;;;;;10.32;6.07;;;;;;;34.07;12.11;101362.63;5049946;28;20033;-73
2022/03/10 11:02:10;;;;;;;7.93;5.75;;;;;;;34.43;12.11;101346.59;5058987;28;20288;-72
2022/03/10 11:04:38;;;;;;;6.63;5.88;;;;;;;34.77;11.75;101343.72;5058757;28;20043;-73
2022/03/10 11:07:04;;;;;;;7.68;5.55;;;;;;;34.97;10.95;101341.78;5052027;28;20026;-73
2022/03/10 11:09:33;;;;;;;7.10;6.05;;;;;;;35.16;10.80;101336.31;5050210;28;20037;-72
2022/03/10 11:11:59;;;;;;;5.97;4.85;;;;;;;35.03;11.18;101326.88;5058849;28;20029;-73
2022/03/10 11:14:25;;;;;;;5.97;4.70;;;;;;;35.35;11.52;101326.16;5053278;28;20044;-73
2022/03/10 11:16:51;;;;;;;6.50;5.80;;;;;;;36.01;10.91;101324.19;5049303;28;20214;-73
2022/03/10 11:19:25;;;;;;;6.53;5.05;;;;;;;36.32;10.53;101326.38;5059090;28;20104;-73